createdAt,value
2022-09-20T00:02:17.520Z,14.50
2022-09-20T00:07:19.931Z,14.40
2022-09-20T00:12:22.123Z,14.40
2022-09-20T00:17:24.407Z,14.40
2022-09-20T00:22:27.616Z,14.40
2022-09-20T00:27:29.843Z,14.40
2022-09-20T00:32:32.263Z,14.40
2022-09-20T00:37:37.374Z,14.40
2022-09-20T00:42:39.693Z,14.40
2022-09-20T00:47:49.767Z,14.40
2022-09-20T00:53:00.372Z,14.30
2022-09-20T00:58:02.916Z,14.20
2022-09-20T01:03:09.110Z,14.10
2022-09-20T01:08:12.249Z,14.10
2022-09-20T01:13:14.780Z,14.20
2022-09-20T01:18:18.297Z,14.20
2022-09-20T01:28:31.596Z,14.00
2022-09-20T01:45:09.321Z,14.00
2022-09-20T02:27:32.350Z,13.90
2022-09-20T02:38:01.191Z,13.90
2022-09-20T02:48:29.507Z,14.00
2022-09-20T03:10:29.182Z,14.00
2022-09-20T03:15:49.006Z,14.10
2022-09-20T03:21:22.841Z,14.20
2022-09-20T03:42:47.554Z,13.90
2022-09-20T03:53:40.545Z,13.80
2022-09-20T04:14:42.058Z,13.90
2022-09-20T04:20:02.665Z,13.60
2022-09-20T04:25:16.138Z,13.40
2022-09-20T04:30:22.924Z,13.50
2022-09-20T04:41:16.600Z,13.50
2022-09-20T04:46:58.598Z,13.50
2022-09-20T05:19:08.281Z,13.50
2022-09-20T05:40:13.196Z,13.50
2022-09-20T05:45:49.522Z,13.80
2022-09-20T05:51:04.948Z,13.80
2022-09-20T06:01:26.781Z,14.10
2022-09-20T06:06:45.264Z,14.30
2022-09-20T06:22:34.335Z,15.60
2022-09-20T06:38:58.371Z,16.70
2022-09-20T06:44:02.918Z,18.70
2022-09-20T06:49:08.295Z,20.40
2022-09-20T06:54:17.812Z,22.90
2022-09-20T06:59:20.031Z,24.90
2022-09-20T07:04:26.998Z,26.80
2022-09-20T07:09:29.292Z,27.90
2022-09-20T07:14:31.509Z,26.70
2022-09-20T07:19:34.003Z,25.10
2022-09-20T07:24:36.480Z,24.70
2022-09-20T07:29:38.746Z,26.60
2022-09-20T07:34:41.368Z,27.70
2022-09-20T07:39:43.692Z,28.70
2022-09-20T07:44:46.549Z,28.60
2022-09-20T07:49:48.774Z,29.40
2022-09-20T07:54:51.002Z,29.90
2022-09-20T07:59:53.191Z,30.60
2022-09-20T08:04:55.543Z,30.50
2022-09-20T08:09:57.860Z,30.40
2022-09-20T08:15:01.575Z,29.50
2022-09-20T08:20:03.999Z,28.70
2022-09-20T08:25:07.134Z,27.90
2022-09-20T08:30:10.436Z,27.10
2022-09-20T08:35:13.642Z,26.70
2022-09-20T08:40:16.082Z,26.00
2022-09-20T08:45:33.735Z,25.60
2022-09-20T08:50:37.551Z,24.90
2022-09-20T08:55:41.745Z,24.60
2022-09-20T09:00:46.951Z,24.50
2022-09-20T09:05:52.929Z,24.40
2022-09-20T09:10:59.397Z,24.50
2022-09-20T09:16:10.002Z,24.40
2022-09-20T09:21:23.437Z,24.20
2022-09-20T09:26:25.985Z,23.90
2022-09-20T09:31:28.325Z,23.40
2022-09-20T09:36:31.088Z,23.00
2022-09-20T09:41:35.756Z,22.80
2022-09-20T09:46:40.420Z,22.30
2022-09-20T09:52:02.162Z,22.00
2022-09-20T10:02:57.995Z,21.90
2022-09-20T10:13:48.855Z,21.50
2022-09-20T10:19:24.808Z,21.10
2022-09-20T10:35:21.210Z,21.40
2022-09-20T10:51:19.126Z,21.40
2022-09-20T11:01:49.433Z,21.60
2022-09-20T11:17:44.276Z,21.00
2022-09-20T11:22:52.678Z,21.20
2022-09-20T11:28:01.779Z,21.50
2022-09-20T11:33:18.767Z,21.10
2022-09-20T11:43:38.904Z,21.00
2022-09-20T11:59:29.674Z,21.60
2022-09-20T12:04:35.915Z,22.30
2022-09-20T12:09:42.675Z,22.10
2022-09-20T12:14:55.053Z,21.80
2022-09-20T12:19:57.251Z,21.60
2022-09-20T12:25:37.210Z,22.00
2022-09-20T12:30:39.420Z,22.10
2022-09-20T12:36:14.538Z,21.80
2022-09-20T12:41:27.855Z,21.70
2022-09-20T12:46:43.622Z,21.70
2022-09-20T12:52:11.537Z,21.60
2022-09-20T12:57:27.430Z,21.50
2022-09-20T13:08:13.430Z,21.50
2022-09-20T13:13:27.666Z,21.50
2022-09-20T13:18:30.289Z,21.60
2022-09-20T13:23:44.410Z,21.70
2022-09-20T13:28:52.812Z,21.70
2022-09-20T13:33:55.611Z,21.60
2022-09-20T13:38:58.771Z,21.60
2022-09-20T13:44:02.078Z,21.30
2022-09-20T13:59:36.603Z,21.30
2022-09-20T14:04:39.426Z,21.10
2022-09-20T14:09:41.700Z,21.30
2022-09-20T14:14:44.834Z,21.20
2022-09-20T14:19:49.971Z,21.00
2022-09-20T14:30:38.600Z,21.10
2022-09-20T14:35:48.151Z,21.10
2022-09-20T14:40:51.954Z,21.00
2022-09-20T14:45:57.593Z,21.00
2022-09-20T14:51:22.296Z,20.90
2022-09-20T14:56:35.502Z,20.90
2022-09-20T15:01:42.485Z,20.90
2022-09-20T15:06:45.024Z,20.50
2022-09-20T15:11:50.040Z,20.50
2022-09-20T15:16:52.559Z,20.60
2022-09-20T15:21:54.862Z,20.60
2022-09-20T15:26:57.200Z,20.50
2022-09-20T15:31:59.841Z,20.50
2022-09-20T15:37:02.100Z,20.40
2022-09-20T15:42:04.653Z,20.30
2022-09-20T15:47:07.910Z,20.30
2022-09-20T15:52:11.474Z,20.20
2022-09-20T15:57:13.765Z,20.30
2022-09-20T16:02:16.153Z,20.30
2022-09-20T16:07:18.993Z,20.10
2022-09-20T16:12:22.802Z,20.20
2022-09-20T16:17:45.058Z,20.10
2022-09-20T16:22:47.422Z,20.10
2022-09-20T16:27:49.621Z,20.00
2022-09-20T16:32:53.045Z,19.90
2022-09-20T16:37:55.295Z,19.80
2022-09-20T16:42:58.715Z,19.70
2022-09-20T16:48:06.390Z,19.60
2022-09-20T16:53:10.611Z,19.40
2022-09-20T16:58:12.855Z,19.30
2022-09-20T17:03:15.966Z,19.30
2022-09-20T17:08:18.221Z,19.20
2022-09-20T17:13:20.471Z,19.10
2022-09-20T17:18:22.915Z,19.00
2022-09-20T17:23:25.261Z,18.90
2022-09-20T17:28:27.511Z,18.90
2022-09-20T17:33:31.168Z,18.80
2022-09-20T17:38:35.007Z,18.80
2022-09-20T17:43:38.243Z,18.70
2022-09-20T17:48:41.860Z,18.70
2022-09-20T17:53:44.795Z,18.60
2022-09-20T17:58:47.579Z,18.60
2022-09-20T18:03:50.238Z,18.50
2022-09-20T18:08:56.418Z,18.50
2022-09-20T18:13:59.833Z,18.40
2022-09-20T18:19:02.406Z,18.00
2022-09-20T18:24:06.915Z,18.00
2022-09-20T18:29:12.528Z,18.10
2022-09-20T18:39:27.424Z,18.10
2022-09-20T18:44:34.334Z,18.00
2022-09-20T18:49:36.740Z,17.90
2022-09-20T18:54:39.141Z,17.80
2022-09-20T18:59:46.638Z,17.80
2022-09-20T19:20:49.911Z,17.80
2022-09-20T19:26:06.142Z,17.70
2022-09-20T19:31:21.089Z,17.60
2022-09-20T19:36:25.203Z,17.50
2022-09-20T19:51:49.946Z,17.30
2022-09-20T19:56:56.241Z,17.10
2022-09-20T20:01:58.969Z,17.10
2022-09-20T20:18:16.475Z,17.00
2022-09-20T20:28:52.721Z,16.80
2022-09-20T20:33:55.594Z,16.80
2022-09-20T20:38:57.802Z,16.80
2022-09-20T20:44:00.152Z,16.70
2022-09-20T20:49:03.723Z,16.70
2022-09-20T20:54:06.062Z,16.70
2022-09-20T20:59:08.419Z,16.60
2022-09-20T21:04:11.515Z,16.60
2022-09-20T21:09:13.769Z,16.60
2022-09-20T21:14:16.555Z,16.50
2022-09-20T21:19:19.143Z,16.40
2022-09-20T21:24:21.391Z,16.30
2022-09-20T21:29:23.599Z,16.30
2022-09-20T21:34:25.928Z,16.20
2022-09-20T21:39:28.117Z,16.20
2022-09-20T21:44:30.318Z,16.20
2022-09-20T21:49:32.514Z,16.10
2022-09-20T21:54:34.727Z,16.10
2022-09-20T21:59:37.594Z,16.10
2022-09-20T22:04:39.794Z,16.10
2022-09-20T22:09:41.962Z,16.20
2022-09-20T22:14:44.618Z,16.20
2022-09-20T22:19:47.181Z,16.20
2022-09-20T22:24:49.469Z,16.30
2022-09-20T22:29:51.688Z,16.30
2022-09-20T22:34:53.996Z,16.30
2022-09-20T22:39:56.245Z,16.30
2022-09-20T22:45:00.355Z,16.30
2022-09-20T22:50:02.567Z,16.30
2022-09-20T22:55:05.329Z,16.30
2022-09-20T23:00:08.367Z,16.30
2022-09-20T23:05:11.137Z,16.30
2022-09-20T23:10:13.372Z,16.20
2022-09-20T23:15:16.053Z,16.10
2022-09-20T23:20:18.280Z,16.00
2022-09-20T23:25:20.687Z,16.00
2022-09-20T23:30:23.360Z,16.00
2022-09-20T23:35:45.609Z,16.00
2022-09-20T23:40:47.880Z,15.90
2022-09-20T23:45:50.214Z,15.90
2022-09-20T23:50:52.702Z,15.80
2022-09-20T23:55:55.114Z,15.80
